Tonos — V7EF2 — position and weather

sailwx.info

Track history (hours):
 
Tides and Currents Weather Stations Pressure Air Temp Water Temp Dewpoint Dewpoint Depression Visibility Wind Speed Wind Dir Waves Ship Positions

Tonos

Last reported at 2017-Nov-04 03:43 UTC. Time now 2017-Nov-18 23:37 UTC.
Position N 01°15' E 104°02'.
Warning: this ship's position is 14 days out of date.

Length 276 m; draft 15.5 m.

Type: Tanker. MMSI: 538006541.

Date/timePositionNaut miles runAvg speedWind from/ knotsBaromVisibWave heightAir tempDewpointWater temp
2017-Nov-04 03:43N 01°15' E 104°02'412.5
2017-Nov-04 03:24N 01°14' E 103°58'512.3
2017-Nov-04 03:00N 01°12' E 103°53'611.3
2017-Nov-04 02:30N 01°10' E 103°48'611.1
2017-Nov-04 02:00N 01°06' E 103°44'611.5
2017-Nov-04 01:30N 01°03' E 103°39'612.3
2017-Nov-04 00:59N 01°07' E 103°33'612.1
2017-Nov-04 00:30N 01°10' E 103°28'611.9
2017-Nov-03 23:57N 01°13' E 103°23'711.6
2017-Nov-03 23:23N 01°17' E 103°18'  
Track history (hours):
 
Tides and Currents Weather Stations Pressure Air Temp Water Temp Dewpoint Dewpoint Depression Visibility Wind Speed Wind Dir Waves Ship Positions

Tonos

Last reported at 2017-Nov-04 03:43 UTC. Time now 2017-Nov-18 23:37 UTC.
Position N 01°15' E 104°02'.
Warning: this ship's position is 14 days out of date.

Length 276 m; draft 15.5 m.

Type: Tanker. MMSI: 538006541.

Date/timePositionNaut miles runAvg speedWind from/ knotsBaromVisibWave heightAir tempDewpointWater temp
2017-Nov-04 03:43N 01°15' E 104°02'412.5
2017-Nov-04 03:24N 01°14' E 103°58'512.3
2017-Nov-04 03:00N 01°12' E 103°53'611.3
2017-Nov-04 02:30N 01°10' E 103°48'611.1
2017-Nov-04 02:00N 01°06' E 103°44'611.5
2017-Nov-04 01:30N 01°03' E 103°39'612.3
2017-Nov-04 00:59N 01°07' E 103°33'612.1
2017-Nov-04 00:30N 01°10' E 103°28'611.9
2017-Nov-03 23:57N 01°13' E 103°23'711.6
2017-Nov-03 23:23N 01°17' E 103°18'  

Dump ship's entire track history